createdAt,value
2017-10-23T00:00:33.225Z,85.45
2017-10-23T00:01:43.675Z,85.58
2017-10-23T00:02:54.174Z,85.73
2017-10-23T00:04:04.627Z,85.45
2017-10-23T00:05:15.161Z,85.39
2017-10-23T00:06:25.636Z,85.58
2017-10-23T00:07:36.136Z,85.49
2017-10-23T00:08:46.604Z,85.49
2017-10-23T00:09:57.099Z,84.82
2017-10-23T00:11:07.563Z,84.92
2017-10-23T00:12:18.032Z,84.88
2017-10-23T00:13:28.489Z,84.92
2017-10-23T00:14:38.941Z,84.72
2017-10-23T00:15:49.383Z,84.59
2017-10-23T00:16:59.875Z,84.92
2017-10-23T00:18:10.359Z,84.59
2017-10-23T00:19:20.931Z,84.49
2017-10-23T00:20:31.393Z,84.49
2017-10-23T00:21:41.838Z,84.49
2017-10-23T00:22:52.324Z,84.97
2017-10-23T00:24:02.809Z,84.49
2017-10-23T00:25:13.448Z,84.78
2017-10-23T00:26:23.951Z,84.78
2017-10-23T00:27:34.398Z,84.78
2017-10-23T00:28:44.896Z,84.78
2017-10-23T00:29:55.340Z,84.4
2017-10-23T00:31:05.805Z,84.97
2017-10-23T00:32:16.261Z,84.59
2017-10-23T00:33:26.806Z,84.88
2017-10-23T00:34:37.338Z,84.78
2017-10-23T00:35:47.786Z,85.35
2017-10-23T00:36:57.984Z,84.92
2017-10-23T00:38:08.476Z,85.06
2017-10-23T00:39:18.953Z,85.54
2017-10-23T00:40:29.501Z,85.73
2017-10-23T00:41:39.980Z,85.25
2017-10-23T00:42:50.566Z,85.35
2017-10-23T00:44:01.065Z,85.6
2017-10-23T00:45:11.535Z,85.6
2017-10-23T00:46:21.976Z,86.16
2017-10-23T00:47:32.444Z,85.78
2017-10-23T00:48:43.177Z,85.97
2017-10-23T00:49:54.104Z,85.97
2017-10-23T00:51:04.241Z,86.07
2017-10-23T00:52:14.754Z,86.45
2017-10-23T00:53:25.201Z,86.45
2017-10-23T00:54:35.860Z,86.36
2017-10-23T00:55:46.573Z,86.36
2017-10-23T00:56:56.285Z,86.26
2017-10-23T00:58:06.338Z,86.07
2017-10-23T00:59:16.822Z,86.26
2017-10-23T01:00:27.337Z,86.16
2017-10-23T01:01:37.835Z,86.65
2017-10-23T01:02:48.299Z,86.65
2017-10-23T01:03:58.757Z,86.55
2017-10-23T01:05:08.825Z,86.55
2017-10-23T01:06:19.401Z,86.55
2017-10-23T01:07:30.133Z,86.55
2017-10-23T01:08:40.598Z,87.02
2017-10-23T01:09:51.121Z,86.83
2017-10-23T01:11:01.661Z,86.93
2017-10-23T01:12:12.108Z,86.65
2017-10-23T01:13:22.558Z,86.83
2017-10-23T01:14:33.981Z,86.93
2017-10-23T01:15:44.486Z,87.12
2017-10-23T01:16:54.940Z,86.93
2017-10-23T01:18:05.555Z,87.21
2017-10-23T01:19:16.185Z,87.4
2017-10-23T01:20:26.649Z,87.21
2017-10-23T01:21:37.145Z,87.12
2017-10-23T01:22:47.609Z,87.31
2017-10-23T01:23:58.104Z,87.12
2017-10-23T01:25:08.565Z,87.21
2017-10-23T01:26:19.046Z,87.27
2017-10-23T01:27:29.726Z,86.88
2017-10-23T01:28:40.169Z,86.98
2017-10-23T01:29:50.613Z,87.36
2017-10-23T01:31:01.245Z,87.46
2017-10-23T01:32:11.734Z,87.55
2017-10-23T01:33:22.195Z,87.17
2017-10-23T01:34:32.330Z,87.17
2017-10-23T01:35:42.781Z,87.17
2017-10-23T01:36:53.262Z,87.36
2017-10-23T01:38:03.740Z,88.03
2017-10-23T01:39:14.598Z,87.65
2017-10-23T01:40:25.121Z,87.74
2017-10-23T01:41:35.189Z,87.55
2017-10-23T01:42:45.663Z,87.74
2017-10-23T01:43:56.124Z,87.55
2017-10-23T01:45:06.793Z,87.65
2017-10-23T01:46:17.241Z,87.55
2017-10-23T01:47:27.741Z,87.65
2017-10-23T01:48:38.215Z,87.84
2017-10-23T01:49:48.822Z,87.84
2017-10-23T01:50:59.373Z,88.03
2017-10-23T01:52:09.838Z,88.12
2017-10-23T01:53:20.440Z,88.22
2017-10-23T01:54:30.898Z,88.51
2017-10-23T01:55:41.439Z,88.03
2017-10-23T01:56:51.880Z,88.51
2017-10-23T01:58:02.329Z,88.41
2017-10-23T01:59:12.777Z,88.12
2017-10-23T02:00:22.856Z,88.03
2017-10-23T02:01:33.341Z,88.41
2017-10-23T02:02:43.785Z,88.51
2017-10-23T02:03:54.267Z,87.84
2017-10-23T02:05:04.726Z,88.41
2017-10-23T02:06:15.168Z,88.03
2017-10-23T02:07:25.629Z,87.55
2017-10-23T02:08:36.135Z,87.55
2017-10-23T02:09:46.614Z,87.55
2017-10-23T02:10:57.324Z,87.69
2017-10-23T02:12:08.068Z,87.69
2017-10-23T02:13:18.195Z,87.4
2017-10-23T02:14:28.639Z,87.21
2017-10-23T02:15:39.106Z,87.12
2017-10-23T02:16:49.554Z,86.93
2017-10-23T02:18:00.104Z,87.21
2017-10-23T02:19:10.761Z,87.21
2017-10-23T02:20:21.244Z,87.12
2017-10-23T02:21:31.718Z,87.12
2017-10-23T02:22:42.256Z,87.02
2017-10-23T02:23:52.381Z,86.74
2017-10-23T02:25:02.823Z,86.55
2017-10-23T02:26:13.336Z,86.36
2017-10-23T02:27:23.804Z,86.36
2017-10-23T02:28:34.481Z,86.93
2017-10-23T02:29:44.851Z,86.26
2017-10-23T02:30:55.432Z,86.07
2017-10-23T02:34:38.280Z,86.36
2017-10-23T02:35:48.726Z,86.49
2017-10-23T02:36:59.183Z,86.07
2017-10-23T02:39:25.839Z,85.88
2017-10-23T02:40:36.342Z,85.88
2017-10-23T02:41:46.840Z,85.83
2017-10-23T02:42:58.271Z,86.02
2017-10-23T02:44:08.752Z,86.02
2017-10-23T02:45:19.207Z,85.83
2017-10-23T02:46:29.667Z,85.73
2017-10-23T02:47:39.855Z,85.21
2017-10-23T02:48:50.354Z,85.45
2017-10-23T02:50:00.859Z,85.35
2017-10-23T02:51:11.309Z,85.6
2017-10-23T02:52:21.897Z,85.25
2017-10-23T02:53:32.352Z,85.54
2017-10-23T02:54:42.836Z,85.6
2017-10-23T02:55:53.262Z,85.83
2017-10-23T02:57:03.713Z,85.6
2017-10-23T02:58:14.250Z,85.25
2017-10-23T02:59:24.684Z,85.31
2017-10-23T03:00:35.152Z,85.25
2017-10-23T03:01:45.614Z,85.31
2017-10-23T03:02:56.075Z,85.21
2017-10-23T03:04:06.823Z,85.41
2017-10-23T03:05:17.537Z,85.02
2017-10-23T03:06:28.015Z,85.31
2017-10-23T03:07:42.121Z,85.35
2017-10-23T03:08:52.692Z,85.06
2017-10-23T03:10:03.183Z,85.41
2017-10-23T03:11:13.684Z,85.88
2017-10-23T03:12:24.379Z,85.78
2017-10-23T03:13:34.837Z,85.69
2017-10-23T03:14:45.368Z,85.6
2017-10-23T03:15:55.849Z,85.6
2017-10-23T03:17:06.301Z,85.41
2017-10-23T03:18:16.770Z,85.31
2017-10-23T03:19:27.239Z,85.88
2017-10-23T03:20:37.714Z,85.78
2017-10-23T03:21:48.419Z,85.88
2017-10-23T03:22:58.882Z,85.6
2017-10-23T03:24:09.349Z,85.88
2017-10-23T03:25:19.826Z,85.78
2017-10-23T03:26:30.275Z,85.6
2017-10-23T03:27:40.737Z,85.88
2017-10-23T03:28:51.178Z,86.07
2017-10-23T03:30:01.669Z,85.97
2017-10-23T03:31:12.153Z,85.97
2017-10-23T03:32:22.638Z,85.97
2017-10-23T03:33:33.319Z,85.97
2017-10-23T03:34:43.825Z,86.07
2017-10-23T03:35:53.963Z,85.88
2017-10-23T03:37:04.419Z,85.88
2017-10-23T03:38:14.874Z,86.16
2017-10-23T03:39:25.308Z,85.88
2017-10-23T03:40:35.882Z,86.26
2017-10-23T03:41:46.340Z,86.36
2017-10-23T03:42:56.834Z,86.36
2017-10-23T03:44:07.291Z,86.07
2017-10-23T03:45:17.972Z,85.97
2017-10-23T03:46:28.096Z,86.03
2017-10-23T03:47:38.566Z,86.07
2017-10-23T03:48:49.016Z,86.45
2017-10-23T03:49:59.453Z,86.45
2017-10-23T03:51:10.053Z,86.45
2017-10-23T03:52:20.510Z,86.22
2017-10-23T03:53:30.952Z,86.45
2017-10-23T03:54:41.411Z,86.45
2017-10-23T03:55:51.563Z,86.51
2017-10-23T03:57:01.722Z,86.45
2017-10-23T03:58:12.200Z,86.36
2017-10-23T03:59:22.633Z,86.41
2017-10-23T04:00:33.147Z,86.36
2017-10-23T04:01:43.199Z,86.36
2017-10-23T04:02:53.792Z,86.16
2017-10-23T04:04:04.306Z,86.07
2017-10-23T04:05:14.770Z,85.88
2017-10-23T04:06:25.237Z,85.88
2017-10-23T04:07:35.360Z,85.78
2017-10-23T04:08:45.953Z,85.88
2017-10-23T04:09:56.412Z,85.41
2017-10-23T04:11:06.877Z,85.31
2017-10-23T04:12:17.366Z,85.6
2017-10-23T04:13:27.865Z,85.69
2017-10-23T04:14:38.337Z,85.12
2017-10-23T04:15:48.797Z,85.31
2017-10-23T04:16:59.286Z,85.12
2017-10-23T04:18:09.832Z,85.12
2017-10-23T04:19:20.286Z,85.12
2017-10-23T04:20:30.915Z,84.55
2017-10-23T04:21:41.346Z,85.21
2017-10-23T04:22:51.488Z,85.02
2017-10-23T04:24:02.062Z,84.83
2017-10-23T04:25:12.193Z,84.83
2017-10-23T04:26:22.687Z,84.83
2017-10-23T04:27:32.836Z,84.92
2017-10-23T04:28:43.278Z,84.92
2017-10-23T04:29:53.755Z,84.92
2017-10-23T04:31:04.246Z,84.74
2017-10-23T04:32:15.114Z,84.55
2017-10-23T04:33:25.346Z,84.74
2017-10-23T04:34:35.820Z,84.83
2017-10-23T04:35:46.459Z,84.55
2017-10-23T04:36:56.957Z,85.02
2017-10-23T04:38:07.426Z,84.45
2017-10-23T04:39:17.900Z,84.45
2017-10-23T04:40:28.344Z,84.55
2017-10-23T04:41:38.414Z,84.45
2017-10-23T04:42:48.880Z,84.55
2017-10-23T04:43:59.323Z,84.55
2017-10-23T04:45:09.884Z,84.55
2017-10-23T04:46:20.363Z,84.74
2017-10-23T04:47:30.900Z,84.64
2017-10-23T04:48:41.336Z,84.36
2017-10-23T04:49:51.800Z,84.45
2017-10-23T04:51:02.035Z,84.64
2017-10-23T04:52:12.476Z,84.64
2017-10-23T04:53:23.046Z,84.55
2017-10-23T04:54:33.231Z,84.45
2017-10-23T04:55:43.787Z,84.45
2017-10-23T04:56:54.215Z,84.45
2017-10-23T04:58:04.836Z,84.55
2017-10-23T04:59:15.287Z,84.74
2017-10-23T05:00:25.448Z,84.74
2017-10-23T05:01:36.013Z,84.45
2017-10-23T05:02:46.464Z,84.45
2017-10-23T05:03:56.972Z,84.55
2017-10-23T05:05:07.406Z,84.74
2017-10-23T05:06:17.900Z,84.16
2017-10-23T05:07:28.077Z,84.55
2017-10-23T05:08:38.519Z,84.07
2017-10-23T05:09:49.198Z,84.16
2017-10-23T05:10:59.401Z,84.07
2017-10-23T05:12:10.109Z,84.16
2017-10-23T05:13:20.631Z,84.36
2017-10-23T05:14:31.121Z,84.07
2017-10-23T05:15:41.686Z,84.26
2017-10-23T05:16:52.004Z,84.26
2017-10-23T05:18:02.481Z,84.26
2017-10-23T05:19:12.940Z,84.26
2017-10-23T05:20:23.439Z,83.88
2017-10-23T05:21:33.928Z,84.07
2017-10-23T05:22:44.425Z,84.07
2017-10-23T05:23:54.450Z,84.16
2017-10-23T05:25:05.124Z,84.16
2017-10-23T05:26:15.570Z,84.16
2017-10-23T05:27:26.057Z,83.97
2017-10-23T05:28:36.172Z,83.78
2017-10-23T05:29:46.697Z,84.36
2017-10-23T05:30:57.164Z,84.16
2017-10-23T05:32:07.620Z,84.07
2017-10-23T05:33:18.107Z,84.16
2017-10-23T05:34:28.616Z,83.69
2017-10-23T05:35:38.742Z,83.88
2017-10-23T05:36:49.226Z,83.69
2017-10-23T05:37:59.794Z,83.69
2017-10-23T05:39:10.362Z,83.83
2017-10-23T05:40:20.820Z,84.16
2017-10-23T05:41:31.291Z,83.59
2017-10-23T05:42:41.964Z,83.78
2017-10-23T05:43:52.007Z,83.59
2017-10-23T05:45:02.534Z,83.54
2017-10-23T05:46:12.986Z,83.92
2017-10-23T05:47:23.135Z,83.83
2017-10-23T05:48:33.667Z,83.5
2017-10-23T05:49:44.115Z,83.59
2017-10-23T05:50:54.863Z,83.78
2017-10-23T05:52:05.336Z,83.4
2017-10-23T05:53:15.789Z,84.07
2017-10-23T05:54:26.259Z,83.5
2017-10-23T05:55:36.744Z,83.88
2017-10-23T05:56:47.206Z,83.21
2017-10-23T05:57:57.667Z,83.78
2017-10-23T05:59:08.142Z,83.88
2017-10-23T06:00:18.608Z,83.59
2017-10-23T06:01:29.061Z,83.88
2017-10-23T06:02:39.491Z,83.97
2017-10-23T06:03:50.073Z,83.88
2017-10-23T06:05:00.562Z,84.26
2017-10-23T06:06:11.021Z,84.16
2017-10-23T06:07:21.602Z,84.55
2017-10-23T06:08:32.297Z,84.83
2017-10-23T06:09:42.741Z,84.64
2017-10-23T06:10:52.888Z,84.45
2017-10-23T06:12:03.498Z,84.45
2017-10-23T06:13:14.063Z,84.45
2017-10-23T06:14:24.518Z,84.74
2017-10-23T06:15:35.159Z,84.64
2017-10-23T06:16:45.663Z,84.83
2017-10-23T06:17:56.337Z,84.92
2017-10-23T06:19:06.817Z,85.12
2017-10-23T06:20:17.317Z,85.12
2017-10-23T06:21:27.814Z,85.41
2017-10-23T06:22:38.272Z,85.69
2017-10-23T06:23:48.729Z,85.6
2017-10-23T06:24:59.203Z,85.6
2017-10-23T06:26:09.689Z,85.6
2017-10-23T06:27:20.403Z,85.31
2017-10-23T06:28:31.097Z,85.31
2017-10-23T06:29:41.636Z,85.41
2017-10-23T06:30:52.240Z,85.41
2017-10-23T06:32:02.714Z,85.88
2017-10-23T06:33:14.144Z,85.88
2017-10-23T06:34:24.618Z,86.26
2017-10-23T06:35:35.276Z,86.26
2017-10-23T06:36:45.742Z,86.93
2017-10-23T06:37:56.242Z,86.65
2017-10-23T06:39:06.271Z,86.55
2017-10-23T06:40:16.733Z,86.65
2017-10-23T06:41:27.158Z,87.02
2017-10-23T06:42:37.441Z,86.93
2017-10-23T06:43:47.881Z,87.12
2017-10-23T06:44:58.351Z,87.12
2017-10-23T06:46:08.806Z,87.21
2017-10-23T06:47:19.292Z,87.5
2017-10-23T06:48:29.730Z,87.69
2017-10-23T06:49:40.203Z,87.88
2017-10-23T06:50:50.693Z,87.79
2017-10-23T06:52:01.186Z,87.98
2017-10-23T06:53:11.322Z,88.07
2017-10-23T06:54:21.888Z,88.26
2017-10-23T06:55:32.553Z,88.36
2017-10-23T06:56:43.044Z,88.17
2017-10-23T06:57:53.485Z,88.17
2017-10-23T06:59:04.118Z,88.45
2017-10-23T07:00:14.584Z,88.74
2017-10-23T07:01:25.100Z,88.93
2017-10-23T07:02:34.896Z,88.84
2017-10-23T07:03:45.382Z,88.74
2017-10-23T07:04:56.077Z,88.64
2017-10-23T07:06:06.649Z,88.45
2017-10-23T07:07:17.138Z,88.84
2017-10-23T07:08:27.580Z,88.93
2017-10-23T07:09:38.079Z,88.74
2017-10-23T07:10:48.537Z,89.4
2017-10-23T07:11:59.000Z,89.22
2017-10-23T07:13:09.506Z,89.6
2017-10-23T07:14:19.957Z,89.4
2017-10-23T07:15:30.474Z,89.22
2017-10-23T07:16:40.924Z,89.22
2017-10-23T07:17:51.441Z,89.4
2017-10-23T07:19:01.874Z,89.89
2017-10-23T07:20:12.409Z,89.69
2017-10-23T07:21:22.857Z,89.79
2017-10-23T07:22:33.024Z,89.69
2017-10-23T07:23:43.254Z,89.69
2017-10-23T07:24:54.077Z,89.89
2017-10-23T07:26:04.523Z,89.69
2017-10-23T07:27:15.021Z,89.79
2017-10-23T07:28:25.086Z,90.17
2017-10-23T07:29:35.625Z,90.41
2017-10-23T07:30:45.749Z,90.31
2017-10-23T07:31:56.223Z,90.08
2017-10-23T07:33:06.712Z,90.41
2017-10-23T07:34:17.164Z,90.36
2017-10-23T07:35:27.687Z,90.12
2017-10-23T07:36:38.144Z,90.31
2017-10-23T07:37:48.755Z,90.59
2017-10-23T07:38:59.280Z,90.12
2017-10-23T07:40:09.731Z,90.31
2017-10-23T07:41:20.224Z,90.5
2017-10-23T07:42:30.687Z,90.12
2017-10-23T07:43:41.248Z,90.03
2017-10-23T07:44:51.697Z,90.22
2017-10-23T07:46:01.952Z,90.12
2017-10-23T07:47:12.437Z,90.22
2017-10-23T07:48:22.868Z,90.59
2017-10-23T07:49:33.052Z,90.31
2017-10-23T07:50:43.585Z,90.12
2017-10-23T07:51:54.168Z,90.5
2017-10-23T07:53:04.646Z,90.69
2017-10-23T07:54:15.231Z,90.5
2017-10-23T07:55:25.687Z,90.59
2017-10-23T07:56:36.164Z,90.79
2017-10-23T07:57:46.634Z,90.79
2017-10-23T07:58:57.154Z,90.79
2017-10-23T08:00:07.639Z,90.5
2017-10-23T08:01:18.088Z,91.27
2017-10-23T08:02:28.756Z,91.27
2017-10-23T08:03:39.233Z,90.5
2017-10-23T08:04:49.669Z,91.07
2017-10-23T08:06:00.143Z,90.88
2017-10-23T08:07:10.670Z,91.17
2017-10-23T08:08:21.166Z,91.07
2017-10-23T08:09:31.604Z,91.41
2017-10-23T08:10:42.063Z,91.21
2017-10-23T08:11:52.550Z,91.21
2017-10-23T08:13:03.002Z,91.12
2017-10-23T08:14:13.474Z,90.64
2017-10-23T08:15:23.964Z,91.21
2017-10-23T08:16:34.484Z,91.21
2017-10-23T08:17:45.182Z,91.21
2017-10-23T08:18:55.759Z,91.02
2017-10-23T08:20:06.282Z,90.83
2017-10-23T08:21:16.770Z,90.73
2017-10-23T08:22:27.258Z,90.55
2017-10-23T08:23:37.692Z,90.55
2017-10-23T08:24:48.157Z,90.55
2017-10-23T08:25:58.636Z,90.55
2017-10-23T08:27:09.287Z,90.73
2017-10-23T08:28:19.756Z,90.64
2017-10-23T08:29:30.244Z,90.83
2017-10-23T08:30:40.401Z,90.73
2017-10-23T08:31:51.061Z,90.55
2017-10-23T08:33:01.556Z,91.02
2017-10-23T08:34:12.073Z,90.83
2017-10-23T08:35:22.538Z,90.73
2017-10-23T08:36:33.030Z,90.55
2017-10-23T08:37:43.489Z,90.45
2017-10-23T08:38:53.967Z,90.45
2017-10-23T08:40:04.434Z,90.07
2017-10-23T08:41:14.914Z,90.64
2017-10-23T08:42:25.381Z,90.31
2017-10-23T08:43:35.852Z,89.54
2017-10-23T08:44:46.302Z,88.97
2017-10-23T08:45:56.786Z,88.73
2017-10-23T08:47:06.838Z,88.87
2017-10-23T08:48:17.293Z,88.82
2017-10-23T08:49:27.816Z,88.06
2017-10-23T08:50:38.263Z,87.77
2017-10-23T08:51:48.877Z,87.39
2017-10-23T08:52:59.565Z,87.2
2017-10-23T08:54:10.001Z,87.05
2017-10-23T08:55:20.531Z,86.96
2017-10-23T08:56:31.123Z,85.9
2017-10-23T08:57:41.553Z,85.52
2017-10-23T08:58:52.109Z,86
2017-10-23T09:00:02.632Z,85.81
2017-10-23T09:01:13.129Z,86.1
2017-10-23T09:02:23.330Z,85.71
2017-10-23T09:03:33.854Z,85.52
2017-10-23T09:04:44.320Z,85.29
2017-10-23T09:05:54.489Z,85.58
2017-10-23T09:07:04.978Z,85.38
2017-10-23T09:08:15.667Z,84.91
2017-10-23T09:09:26.243Z,84.91
2017-10-23T09:10:36.778Z,85
2017-10-23T09:11:47.228Z,85.38
2017-10-23T09:12:57.677Z,85.38
2017-10-23T09:14:08.140Z,85.58
2017-10-23T09:15:18.727Z,84.91
2017-10-23T09:16:29.276Z,84.66
2017-10-23T09:17:39.747Z,84.95
2017-10-23T09:18:50.297Z,84.28
2017-10-23T09:20:00.791Z,83.8
2017-10-23T09:21:11.276Z,83.46
2017-10-23T09:22:21.754Z,82.83
2017-10-23T09:23:32.458Z,81.4
2017-10-23T09:24:42.945Z,80
2017-10-23T09:25:53.443Z,81.05
2017-10-23T09:27:03.897Z,80.67
2017-10-23T09:28:14.515Z,79.62
2017-10-23T09:29:25.053Z,79.62
2017-10-23T09:30:35.547Z,80.73
2017-10-23T09:31:46.043Z,80.25
2017-10-23T09:32:56.610Z,80.06
2017-10-23T09:34:07.078Z,80.88
2017-10-23T09:35:17.542Z,80.88
2017-10-23T09:36:28.033Z,80.79
2017-10-23T09:37:38.497Z,81.65
2017-10-23T09:38:49.042Z,81.45
2017-10-23T09:39:59.522Z,81.26
2017-10-23T09:41:09.995Z,81.55
2017-10-23T09:42:20.596Z,81.55
2017-10-23T09:43:31.161Z,82.03
2017-10-23T09:44:41.644Z,81.74
2017-10-23T09:45:52.132Z,82.22
2017-10-23T09:47:02.590Z,81.89
2017-10-23T09:48:13.090Z,81.99
2017-10-23T09:49:23.565Z,82.18
2017-10-23T09:50:34.058Z,82.56
2017-10-23T09:51:44.512Z,82.37
2017-10-23T09:52:55.006Z,82.37
2017-10-23T09:54:05.504Z,82.65
2017-10-23T09:55:15.974Z,82.56
2017-10-23T09:56:26.512Z,82.84
2017-10-23T09:57:37.082Z,82.65
2017-10-23T09:58:47.579Z,82.28
2017-10-23T09:59:58.040Z,82.75
2017-10-23T10:01:08.569Z,82.56
2017-10-23T10:02:19.209Z,82.65
2017-10-23T10:03:29.710Z,83.57
2017-10-23T10:04:40.291Z,83.57
2017-10-23T10:05:50.796Z,83.28
2017-10-23T10:07:01.256Z,83.38
2017-10-23T10:08:11.770Z,83.18
2017-10-23T10:09:22.264Z,83.28
2017-10-23T10:10:32.806Z,83.76
2017-10-23T10:11:43.352Z,83.76
2017-10-23T10:12:53.823Z,83.57
2017-10-23T10:14:04.375Z,83.51
2017-10-23T10:15:14.865Z,83.7
2017-10-23T10:16:25.328Z,83.8
2017-10-23T10:17:35.787Z,83.7
2017-10-23T10:18:46.302Z,83.23
2017-10-23T10:19:56.772Z,83.47
2017-10-23T10:21:07.414Z,83.47
2017-10-23T10:22:17.865Z,83.23
2017-10-23T10:23:28.322Z,83.57
2017-10-23T10:24:38.829Z,83.42
2017-10-23T10:25:49.360Z,82.75
2017-10-23T10:26:59.814Z,82.84
2017-10-23T10:28:10.391Z,82.08
2017-10-23T10:29:20.882Z,81.6
2017-10-23T10:30:31.392Z,81.99
2017-10-23T10:31:41.881Z,82.37
2017-10-23T10:32:52.365Z,82.56
2017-10-23T10:34:03.074Z,81.51
2017-10-23T10:35:13.608Z,81.32
2017-10-23T10:36:24.105Z,81.51
2017-10-23T10:37:34.692Z,81.22
2017-10-23T10:38:45.267Z,81.41
2017-10-23T10:39:55.709Z,81.51
2017-10-23T10:41:06.495Z,80.55
2017-10-23T10:42:16.206Z,81.22
2017-10-23T10:43:26.795Z,81.16
2017-10-23T10:44:37.291Z,81.36
2017-10-23T10:45:47.842Z,81.26
2017-10-23T10:46:58.407Z,81.65
2017-10-23T10:48:08.867Z,79.64
2017-10-23T10:49:19.411Z,80.21
2017-10-23T10:50:29.903Z,80.21
2017-10-23T10:51:40.046Z,80.59
2017-10-23T10:52:50.530Z,80.79
2017-10-23T10:54:01.064Z,81.16
2017-10-23T10:55:10.852Z,80.21
2017-10-23T10:56:21.340Z,80.35
2017-10-23T10:57:31.852Z,79.87
2017-10-23T10:58:42.346Z,78.81
2017-10-23T10:59:52.812Z,78.24
2017-10-23T11:01:03.453Z,76.37
2017-10-23T11:02:13.944Z,76.27
2017-10-23T11:03:24.462Z,76.37
2017-10-23T11:04:34.942Z,76.65
2017-10-23T11:05:45.449Z,76.65
2017-10-23T11:06:55.924Z,77.04
2017-10-23T11:08:06.383Z,76.75
2017-10-23T11:09:16.899Z,76.18
2017-10-23T11:10:27.381Z,76.18
2017-10-23T11:11:37.933Z,76.75
2017-10-23T11:12:48.435Z,76.65
2017-10-23T11:13:58.924Z,76.9
2017-10-23T11:15:09.599Z,76.9
2017-10-23T11:16:20.055Z,76.08
2017-10-23T11:17:30.566Z,76.62
2017-10-23T11:18:41.160Z,76.23
2017-10-23T11:19:51.640Z,76.62
2017-10-23T11:21:02.099Z,76.71
2017-10-23T11:22:12.574Z,76.14
2017-10-23T11:23:23.097Z,76.14
2017-10-23T11:24:33.627Z,76.14
2017-10-23T11:25:43.681Z,76.71
2017-10-23T11:26:54.188Z,76.71
2017-10-23T11:28:04.384Z,75.85
2017-10-23T11:29:15.189Z,76.04
2017-10-23T11:30:25.726Z,76.04
2017-10-23T11:31:36.238Z,76.42
2017-10-23T11:32:46.855Z,76.71
2017-10-23T11:33:57.336Z,77.09
2017-10-23T11:35:07.836Z,76.9
2017-10-23T11:36:18.357Z,76.52
2017-10-23T11:37:28.826Z,76.9
2017-10-23T11:38:39.317Z,76.9
2017-10-23T11:39:49.711Z,77.19
2017-10-23T11:41:00.467Z,77.09
2017-10-23T11:42:10.693Z,76.71
2017-10-23T11:43:21.404Z,76.52
2017-10-23T11:44:31.901Z,77
2017-10-23T11:45:42.376Z,77.19
2017-10-23T11:46:52.853Z,76.71
2017-10-23T11:48:03.408Z,76.33
2017-10-23T11:49:13.687Z,76.71
2017-10-23T11:50:24.173Z,76.71
2017-10-23T11:51:34.702Z,77.09
2017-10-23T11:52:45.207Z,76.48
2017-10-23T11:53:55.774Z,77
2017-10-23T11:55:06.270Z,76.52
2017-10-23T11:56:16.740Z,76.71
2017-10-23T11:57:27.238Z,76.42
2017-10-23T11:58:37.712Z,75.85
2017-10-23T11:59:48.304Z,76.04
2017-10-23T12:00:58.777Z,76.04
2017-10-23T12:02:09.249Z,75.95
2017-10-23T12:03:19.478Z,76.23
2017-10-23T12:04:30.255Z,75.95
2017-10-23T12:05:40.423Z,76.23
2017-10-23T12:06:50.898Z,75.85
2017-10-23T12:08:01.381Z,76.18
2017-10-23T12:09:11.527Z,75.79
2017-10-23T12:10:21.689Z,75.89
2017-10-23T12:11:32.178Z,76.23
2017-10-23T12:12:42.660Z,76.23
2017-10-23T12:13:53.188Z,76.37
2017-10-23T12:15:03.657Z,76.46
2017-10-23T12:16:14.352Z,76.18
2017-10-23T12:17:24.829Z,75.89
2017-10-23T12:18:35.326Z,74.8
2017-10-23T12:19:45.870Z,74.74
2017-10-23T12:20:56.155Z,74.55
2017-10-23T12:22:06.605Z,75.02
2017-10-23T12:23:17.182Z,74.74
2017-10-23T12:24:27.749Z,74.74
2017-10-23T12:25:38.309Z,73.59
2017-10-23T12:26:48.793Z,73.97
2017-10-23T12:27:59.276Z,74.26
2017-10-23T12:29:09.481Z,74.26
2017-10-23T12:30:19.942Z,73.97
2017-10-23T12:31:30.408Z,74.07
2017-10-23T12:32:40.927Z,73.88
2017-10-23T12:33:51.565Z,74.55
2017-10-23T12:35:02.142Z,74.16
2017-10-23T12:36:12.661Z,74.26
2017-10-23T12:37:23.330Z,74.3
2017-10-23T12:38:33.816Z,73.91
2017-10-23T12:39:43.899Z,73.63
2017-10-23T12:40:54.422Z,73.54
2017-10-23T12:42:04.914Z,72.67
2017-10-23T12:43:15.510Z,73.02
2017-10-23T12:44:26.011Z,73.02
2017-10-23T12:45:36.492Z,73.11
2017-10-23T12:46:47.116Z,73.21
2017-10-23T12:47:57.661Z,73.21
2017-10-23T12:49:07.820Z,73.5
2017-10-23T12:50:18.411Z,73.79
2017-10-23T12:51:28.799Z,74.16
2017-10-23T12:52:39.541Z,74.45
2017-10-23T12:53:50.125Z,74.36
2017-10-23T12:55:00.626Z,74.55
2017-10-23T12:56:11.144Z,73.88
2017-10-23T12:57:21.782Z,73.94
2017-10-23T12:58:32.260Z,74.61
2017-10-23T12:59:42.833Z,74.13
2017-10-23T13:00:53.517Z,74.41
2017-10-23T13:02:03.996Z,74.41
2017-10-23T13:03:14.489Z,74.51
2017-10-23T13:04:25.063Z,73.94
2017-10-23T13:05:35.658Z,74.61
2017-10-23T13:06:46.131Z,74.41
2017-10-23T13:07:56.801Z,74.22
2017-10-23T13:09:07.327Z,74.22
2017-10-23T13:10:17.820Z,74.32
2017-10-23T13:11:28.405Z,74.51
2017-10-23T13:12:38.615Z,73.84
2017-10-23T13:13:49.206Z,73.84
2017-10-23T13:14:59.701Z,74.51
2017-10-23T13:16:10.251Z,74.22
2017-10-23T13:17:20.465Z,74.04
2017-10-23T13:18:30.637Z,74.51
2017-10-23T13:19:41.241Z,74.41
2017-10-23T13:20:51.712Z,74.41
2017-10-23T13:22:02.365Z,74.41
2017-10-23T13:23:12.865Z,74.13
2017-10-23T13:24:23.318Z,74.22
2017-10-23T13:25:33.906Z,74.22
2017-10-23T13:26:44.756Z,74.19
2017-10-23T13:27:55.309Z,74.48
2017-10-23T13:29:05.886Z,74.57
2017-10-23T13:30:16.418Z,74.48
2017-10-23T13:31:26.701Z,74.85
2017-10-23T13:32:37.530Z,74.57
2017-10-23T13:33:48.053Z,74.85
2017-10-23T13:34:58.678Z,74.66
2017-10-23T13:36:09.213Z,74.48
2017-10-23T13:37:19.646Z,74.66
2017-10-23T13:38:30.220Z,74.61
2017-10-23T13:39:40.751Z,74.41
2017-10-23T13:40:51.415Z,74.41
2017-10-23T13:42:02.047Z,74.51
2017-10-23T13:43:12.570Z,74.32
2017-10-23T13:44:23.073Z,72.79
2017-10-23T13:45:33.670Z,73.11
2017-10-23T13:46:44.143Z,73.11
2017-10-23T13:47:54.615Z,73.11
2017-10-23T13:49:05.234Z,73.3
2017-10-23T13:50:15.791Z,72.73
2017-10-23T13:51:26.302Z,72.73
2017-10-23T13:52:36.781Z,71.68
2017-10-23T13:53:46.910Z,71.87
2017-10-23T13:54:57.454Z,71.97
2017-10-23T13:56:07.978Z,71.87
2017-10-23T13:57:18.705Z,72.06
2017-10-23T13:58:29.265Z,71.48
2017-10-23T13:59:39.732Z,71.11
2017-10-23T14:00:50.326Z,71.3
2017-10-23T14:02:00.784Z,71.68
2017-10-23T14:03:10.986Z,71.48
2017-10-23T14:04:21.585Z,71.58
2017-10-23T14:05:32.140Z,71.97
2017-10-23T14:06:42.623Z,71.68
2017-10-23T14:07:53.210Z,72.02
2017-10-23T14:09:03.712Z,72.5
2017-10-23T14:10:14.197Z,72.31
2017-10-23T14:11:24.667Z,72.31
2017-10-23T14:12:35.169Z,72.41
2017-10-23T14:13:45.338Z,72.31
2017-10-23T14:14:56.141Z,72.5
2017-10-23T14:16:06.688Z,72.79
2017-10-23T14:17:17.196Z,73.17
2017-10-23T14:18:27.794Z,72.5
2017-10-23T14:19:38.306Z,72.79
2017-10-23T14:20:49.039Z,72.5
2017-10-23T14:21:59.535Z,73.08
2017-10-23T14:23:10.083Z,73.08
2017-10-23T14:24:20.644Z,73.08
2017-10-23T14:25:31.106Z,72.98
2017-10-23T14:26:41.642Z,73.46
2017-10-23T14:27:52.466Z,73.55
2017-10-23T14:29:02.683Z,73.08
2017-10-23T14:30:13.157Z,73.08
2017-10-23T14:31:23.641Z,73.46
2017-10-23T14:32:34.232Z,73.36
2017-10-23T14:33:44.730Z,73.46
2017-10-23T14:36:05.761Z,73.43
2017-10-23T14:37:16.244Z,73.33
2017-10-23T14:38:26.703Z,73.23
2017-10-23T14:39:37.236Z,73.52
2017-10-23T14:40:47.791Z,73.71
2017-10-23T14:41:58.315Z,73.61
2017-10-23T14:43:08.814Z,73.71
2017-10-23T14:44:19.303Z,74.09
2017-10-23T14:45:29.797Z,74.19
2017-10-23T14:46:40.290Z,74.19
2017-10-23T14:47:50.847Z,74.57
2017-10-23T14:49:01.320Z,74.28
2017-10-23T14:50:11.873Z,74.19
2017-10-23T14:51:22.432Z,74.57
2017-10-23T14:53:04.716Z,74.57
2017-10-23T14:54:15.414Z,74.66
2017-10-23T14:55:26.061Z,74.85
2017-10-23T14:56:36.214Z,74.76
2017-10-23T14:57:46.759Z,74.44
2017-10-23T14:58:57.217Z,75.39
2017-10-23T15:00:07.808Z,74.91
2017-10-23T15:01:18.309Z,75.34
2017-10-23T15:02:28.769Z,75.05
2017-10-23T15:03:39.239Z,75.14
2017-10-23T15:04:49.734Z,75.52
2017-10-23T15:06:00.376Z,75.52
2017-10-23T15:07:10.901Z,75.43
2017-10-23T15:08:21.505Z,75.62
2017-10-23T15:09:32.016Z,75.71
2017-10-23T15:10:42.506Z,75.52
2017-10-23T15:11:53.091Z,75.81
2017-10-23T15:13:03.808Z,75.59
2017-10-23T15:14:14.347Z,75.52
2017-10-23T15:15:25.062Z,75.68